createdAt,value
2022-08-29T00:01:38.778Z,13.75
2022-08-29T00:06:42.090Z,13.76
2022-08-29T00:11:46.811Z,13.67
2022-08-29T00:16:49.865Z,13.67
2022-08-29T00:21:53.802Z,13.48
2022-08-29T00:27:00.307Z,13.56
2022-08-29T00:32:03.675Z,13.45
2022-08-29T00:37:06.745Z,13.51
2022-08-29T00:42:24.134Z,13.50
2022-08-29T00:47:33.032Z,13.34
2022-08-29T00:52:40.801Z,13.21
2022-08-29T00:57:48.007Z,13.31
2022-08-29T01:02:51.456Z,13.40
2022-08-29T01:07:54.565Z,13.35
2022-08-29T01:12:59.029Z,13.36
2022-08-29T01:18:03.881Z,13.34
2022-08-29T01:23:14.720Z,13.22
2022-08-29T01:28:22.899Z,12.92
2022-08-29T01:38:59.799Z,12.87
2022-08-29T01:44:10.294Z,12.78
2022-08-29T01:49:13.784Z,11.81
2022-08-29T01:54:17.901Z,12.49
2022-08-29T01:59:25.475Z,11.88
2022-08-29T02:04:28.497Z,12.15
2022-08-29T02:09:31.892Z,12.16
2022-08-29T02:14:37.319Z,12.27
2022-08-29T02:19:40.579Z,12.32
2022-08-29T02:24:43.915Z,12.32
2022-08-29T02:29:48.227Z,12.30
2022-08-29T02:34:51.181Z,12.09
2022-08-29T02:39:54.150Z,12.17
2022-08-29T02:44:58.657Z,12.15
2022-08-29T02:50:01.603Z,12.30
2022-08-29T02:55:04.987Z,12.34
2022-08-29T03:00:12.600Z,12.22
2022-08-29T03:05:16.152Z,12.07
2022-08-29T03:10:20.191Z,12.10
2022-08-29T03:15:24.614Z,12.14
2022-08-29T03:20:28.103Z,12.14
2022-08-29T03:25:31.637Z,12.15
2022-08-29T03:30:36.143Z,12.06
2022-08-29T03:35:39.140Z,11.98
2022-08-29T03:40:43.264Z,11.98
2022-08-29T03:45:47.674Z,11.72
2022-08-29T03:50:55.803Z,11.75
2022-08-29T03:55:59.503Z,11.80
2022-08-29T04:01:03.898Z,11.72
2022-08-29T04:06:07.173Z,11.31
2022-08-29T04:11:11.229Z,11.59
2022-08-29T04:16:19.525Z,11.58
2022-08-29T04:21:22.574Z,11.49
2022-08-29T04:26:41.004Z,11.51
2022-08-29T04:31:45.764Z,11.39
2022-08-29T04:36:48.786Z,11.48
2022-08-29T04:41:51.800Z,11.54
2022-08-29T04:46:56.351Z,11.68
2022-08-29T04:51:59.663Z,11.78
2022-08-29T04:57:03.632Z,11.81
2022-08-29T05:02:09.444Z,12.18
2022-08-29T05:07:12.465Z,12.43
2022-08-29T05:12:15.801Z,12.87
2022-08-29T05:17:20.153Z,12.96
2022-08-29T05:22:23.643Z,12.97
2022-08-29T05:27:26.847Z,13.33
2022-08-29T05:32:31.260Z,13.70
2022-08-29T05:37:34.341Z,14.10
2022-08-29T05:42:37.406Z,14.15
2022-08-29T05:47:41.780Z,14.31
2022-08-29T05:52:45.676Z,14.40
2022-08-29T05:57:50.122Z,14.68
2022-08-29T06:02:54.966Z,15.03
2022-08-29T06:07:58.057Z,15.17
2022-08-29T06:13:01.593Z,16.02
2022-08-29T06:18:06.215Z,16.41
2022-08-29T06:23:09.249Z,16.89
2022-08-29T06:28:12.684Z,16.68
2022-08-29T06:33:28.573Z,17.41
2022-08-29T06:38:31.684Z,17.47
2022-08-29T06:43:34.889Z,17.61
2022-08-29T06:48:39.249Z,18.07
2022-08-29T06:53:42.541Z,18.12
2022-08-29T06:58:46.122Z,18.44
2022-08-29T07:03:51.373Z,18.59
2022-08-29T07:08:56.254Z,19.05
2022-08-29T07:14:01.569Z,17.84
2022-08-29T07:19:08.081Z,18.64
2022-08-29T07:24:11.174Z,19.54
2022-08-29T07:29:18.755Z,19.77
2022-08-29T07:34:23.118Z,19.37
2022-08-29T07:39:26.096Z,19.12
2022-08-29T07:44:34.452Z,17.02
2022-08-29T07:49:41.866Z,17.38
2022-08-29T07:54:45.085Z,18.31
2022-08-29T07:59:48.099Z,18.45
2022-08-29T08:04:52.625Z,18.73
2022-08-29T08:09:55.710Z,19.76
2022-08-29T08:14:59.060Z,18.31
2022-08-29T08:20:03.928Z,17.95
2022-08-29T08:25:08.039Z,17.56
2022-08-29T08:30:11.718Z,17.60
2022-08-29T08:35:19.726Z,18.32
2022-08-29T08:40:26.855Z,18.49
2022-08-29T08:45:35.272Z,20.00
2022-08-29T08:50:47.635Z,18.80
2022-08-29T08:55:56.179Z,19.12
2022-08-29T09:01:03.526Z,20.29
2022-08-29T09:06:15.808Z,21.24
2022-08-29T09:11:28.145Z,21.25
2022-08-29T09:16:36.989Z,20.42
2022-08-29T09:21:48.397Z,21.37
2022-08-29T09:26:51.412Z,21.60
2022-08-29T09:32:10.464Z,20.01
2022-08-29T09:37:24.293Z,20.31
2022-08-29T09:42:33.784Z,19.37
2022-08-29T09:47:36.820Z,19.62
2022-08-29T09:52:52.270Z,20.44
2022-08-29T09:57:58.586Z,19.19
2022-08-29T10:03:04.363Z,19.06
2022-08-29T10:08:25.640Z,18.70
2022-08-29T10:13:36.214Z,19.44
2022-08-29T10:18:48.207Z,19.64
2022-08-29T10:24:06.303Z,20.06
2022-08-29T10:29:20.127Z,20.61
2022-08-29T10:34:39.964Z,19.15
2022-08-29T10:39:54.965Z,21.18
2022-08-29T10:45:13.281Z,22.13
2022-08-29T10:50:42.933Z,22.08
2022-08-29T10:55:55.691Z,21.00
2022-08-29T11:01:08.884Z,22.07
2022-08-29T11:06:16.876Z,20.24
2022-08-29T11:11:30.200Z,19.72
2022-08-29T11:16:38.353Z,20.82
2022-08-29T11:21:45.640Z,21.29
2022-08-29T11:26:59.842Z,19.92
2022-08-29T11:32:09.626Z,19.67
2022-08-29T11:37:48.092Z,19.61
2022-08-29T11:42:54.194Z,19.68
2022-08-29T11:48:03.402Z,20.92
2022-08-29T11:53:16.687Z,20.56
2022-08-29T11:58:46.082Z,20.07
2022-08-29T12:03:49.402Z,20.41
2022-08-29T12:09:02.876Z,21.18
2022-08-29T12:14:09.035Z,21.44
2022-08-29T12:19:12.078Z,20.14
2022-08-29T12:24:30.632Z,20.69
2022-08-29T12:29:44.460Z,19.79
2022-08-29T12:35:18.176Z,20.31
2022-08-29T12:40:51.692Z,20.19
2022-08-29T12:45:56.823Z,21.29
2022-08-29T12:51:00.855Z,19.99
2022-08-29T12:56:14.476Z,20.49
2022-08-29T13:01:27.736Z,21.47
2022-08-29T13:06:31.934Z,20.04
2022-08-29T13:11:36.027Z,21.12
2022-08-29T13:16:40.984Z,21.81
2022-08-29T13:21:44.049Z,21.87
2022-08-29T13:27:01.065Z,21.78
2022-08-29T13:32:28.178Z,21.72
2022-08-29T13:37:33.617Z,21.75
2022-08-29T13:42:44.987Z,20.60
2022-08-29T13:47:59.092Z,21.29
2022-08-29T13:53:02.175Z,21.84
2022-08-29T13:58:05.569Z,22.21
2022-08-29T14:03:12.277Z,22.40
2022-08-29T14:08:15.548Z,21.80
2022-08-29T14:13:18.707Z,20.47
2022-08-29T14:18:23.093Z,20.62
2022-08-29T14:23:26.097Z,21.40
2022-08-29T14:28:29.134Z,20.55
2022-08-29T14:33:33.521Z,21.71
2022-08-29T14:38:37.342Z,20.53
2022-08-29T14:43:40.390Z,21.21
2022-08-29T14:48:44.739Z,21.84
2022-08-29T14:53:54.200Z,21.37
2022-08-29T14:58:58.329Z,21.40
2022-08-29T15:04:03.131Z,20.19
2022-08-29T15:09:06.688Z,20.62
2022-08-29T15:14:09.824Z,20.72
2022-08-29T15:19:45.169Z,20.27
2022-08-29T15:24:38.412Z,20.37
2022-08-29T15:29:41.665Z,21.19
2022-08-29T15:34:46.274Z,21.59
2022-08-29T15:39:50.000Z,21.17
2022-08-29T15:44:57.697Z,20.68
2022-08-29T15:50:03.492Z,20.10
2022-08-29T15:55:07.843Z,20.82
2022-08-29T16:00:12.180Z,20.84
2022-08-29T16:05:21.573Z,20.77
2022-08-29T16:10:24.922Z,21.09
2022-08-29T16:15:31.060Z,20.07
2022-08-29T16:20:37.935Z,19.98
2022-08-29T16:25:42.186Z,19.87
2022-08-29T16:30:49.727Z,20.47
2022-08-29T16:35:54.281Z,20.33
2022-08-29T16:40:57.324Z,19.99
2022-08-29T16:46:00.473Z,20.01
2022-08-29T16:51:05.067Z,19.95
2022-08-29T16:56:10.434Z,19.69
2022-08-29T17:01:16.061Z,19.77
2022-08-29T17:06:20.500Z,19.38
2022-08-29T17:11:22.463Z,19.41
2022-08-29T17:16:25.348Z,19.08
2022-08-29T17:21:31.849Z,19.12
2022-08-29T17:26:36.578Z,19.23
2022-08-29T17:31:44.013Z,19.26
2022-08-29T17:36:49.735Z,19.22
2022-08-29T17:41:53.143Z,19.06
2022-08-29T17:46:56.348Z,19.05
2022-08-29T17:52:00.790Z,19.08
2022-08-29T17:57:04.868Z,18.74
2022-08-29T18:02:08.494Z,18.68
2022-08-29T18:07:12.927Z,18.60
2022-08-29T18:12:16.138Z,18.45
2022-08-29T18:17:19.226Z,18.35
2022-08-29T18:22:23.700Z,18.18
2022-08-29T18:27:27.986Z,18.01
2022-08-29T18:32:34.750Z,17.94
2022-08-29T18:37:42.075Z,17.86
2022-08-29T18:42:45.271Z,17.83
2022-08-29T18:47:48.329Z,17.82
2022-08-29T18:52:52.745Z,17.54
2022-08-29T18:57:56.576Z,17.32
2022-08-29T19:03:01.707Z,17.31
2022-08-29T19:08:06.432Z,17.09
2022-08-29T19:13:09.481Z,17.14
2022-08-29T19:18:14.562Z,17.08
2022-08-29T19:23:21.201Z,16.94
2022-08-29T19:28:24.282Z,16.89
2022-08-29T19:33:27.269Z,16.79
2022-08-29T19:38:31.949Z,16.64
2022-08-29T19:43:35.846Z,16.50
2022-08-29T19:48:38.929Z,16.46
2022-08-29T19:53:43.951Z,16.35
2022-08-29T19:58:49.525Z,16.22
2022-08-29T20:03:52.817Z,16.29
2022-08-29T20:08:58.544Z,16.14
2022-08-29T20:14:03.817Z,16.06
2022-08-29T20:19:06.928Z,16.04
2022-08-29T20:24:15.457Z,15.94
2022-08-29T20:29:20.680Z,15.75
2022-08-29T20:34:28.339Z,15.42
2022-08-29T20:39:32.739Z,15.50
2022-08-29T20:44:39.179Z,15.50
2022-08-29T20:49:43.884Z,15.27
2022-08-29T20:54:48.547Z,15.26
2022-08-29T20:59:51.554Z,15.26
2022-08-29T21:05:12.087Z,15.19
2022-08-29T21:10:17.592Z,14.99
2022-08-29T21:15:20.560Z,14.95
2022-08-29T21:20:23.591Z,14.95
2022-08-29T21:25:27.979Z,14.75
2022-08-29T21:30:31.105Z,14.70
2022-08-29T21:35:34.087Z,14.69
2022-08-29T21:40:50.079Z,14.63
2022-08-29T21:45:53.702Z,14.58
2022-08-29T21:50:57.416Z,14.49
2022-08-29T21:56:01.747Z,14.39
2022-08-29T22:01:06.012Z,14.25
2022-08-29T22:06:11.290Z,14.27
2022-08-29T22:11:19.254Z,14.19
2022-08-29T22:16:32.327Z,13.96
2022-08-29T22:21:37.957Z,14.03
2022-08-29T22:26:43.836Z,13.92
2022-08-29T22:31:47.269Z,13.87
2022-08-29T22:36:50.260Z,13.82
2022-08-29T22:41:55.318Z,13.66
2022-08-29T22:46:58.682Z,13.67
2022-08-29T22:52:02.251Z,13.58
2022-08-29T22:57:09.949Z,13.52
2022-08-29T23:02:13.798Z,13.49
2022-08-29T23:07:17.039Z,13.41
2022-08-29T23:12:21.476Z,13.30
2022-08-29T23:17:24.469Z,13.22
2022-08-29T23:22:27.821Z,13.17
2022-08-29T23:27:33.539Z,13.21
2022-08-29T23:32:36.593Z,13.13
2022-08-29T23:37:39.567Z,12.98
2022-08-29T23:42:43.926Z,12.96
2022-08-29T23:47:46.903Z,12.90
2022-08-29T23:52:49.870Z,12.78
2022-08-29T23:57:54.234Z,12.90
